sensor_id;sensor_type;location;lat;lon;timestamp;temperature;humidity
16076;DHT22;8142;48.242;11.644;2023-07-02T00:00:16;18.90;99.90
16076;DHT22;8142;48.242;11.644;2023-07-02T00:02:42;18.90;99.90
16076;DHT22;8142;48.242;11.644;2023-07-02T00:05:08;18.90;99.90
16076;DHT22;8142;48.242;11.644;2023-07-02T00:07:34;18.90;99.90
16076;DHT22;8142;48.242;11.644;2023-07-02T00:10:02;18.90;99.90
16076;DHT22;8142;48.242;11.644;2023-07-02T00:12:28;18.90;99.90
16076;DHT22;8142;48.242;11.644;2023-07-02T00:14:54;18.90;99.90
16076;DHT22;8142;48.242;11.644;2023-07-02T00:17:20;18.90;99.90
16076;DHT22;8142;48.242;11.644;2023-07-02T00:19:46;18.80;99.90
16076;DHT22;8142;48.242;11.644;2023-07-02T00:22:12;18.80;99.90
16076;DHT22;8142;48.242;11.644;2023-07-02T00:24:41;18.80;99.90
16076;DHT22;8142;48.242;11.644;2023-07-02T00:27:08;18.80;99.90
16076;DHT22;8142;48.242;11.644;2023-07-02T00:29:34;18.80;99.90
16076;DHT22;8142;48.242;11.644;2023-07-02T00:32:00;18.80;99.90
16076;DHT22;8142;48.242;11.644;2023-07-02T00:34:26;18.80;99.90
16076;DHT22;8142;48.242;11.644;2023-07-02T00:36:52;18.70;99.90
16076;DHT22;8142;48.242;11.644;2023-07-02T00:39:18;18.70;99.90
16076;DHT22;8142;48.242;11.644;2023-07-02T00:41:44;18.80;99.90
16076;DHT22;8142;48.242;11.644;2023-07-02T00:44:13;18.70;99.90
16076;DHT22;8142;48.242;11.644;2023-07-02T00:46:39;18.70;99.90
16076;DHT22;8142;48.242;11.644;2023-07-02T00:49:06;18.70;99.90
16076;DHT22;8142;48.242;11.644;2023-07-02T00:51:33;18.70;99.90
16076;DHT22;8142;48.242;11.644;2023-07-02T00:53:59;18.70;99.90
16076;DHT22;8142;48.242;11.644;2023-07-02T00:56:26;18.70;99.90
16076;DHT22;8142;48.242;11.644;2023-07-02T00:58:54;18.70;99.90
16076;DHT22;8142;48.242;11.644;2023-07-02T01:01:22;18.60;99.90
16076;DHT22;8142;48.242;11.644;2023-07-02T01:03:59;18.60;99.90
16076;DHT22;8142;48.242;11.644;2023-07-02T01:06:33;18.60;99.90
16076;DHT22;8142;48.242;11.644;2023-07-02T01:09:05;18.60;99.90
16076;DHT22;8142;48.242;11.644;2023-07-02T01:11:54;18.60;99.90
16076;DHT22;8142;48.242;11.644;2023-07-02T01:14:30;18.60;99.90
16076;DHT22;8142;48.242;11.644;2023-07-02T01:16:57;18.70;99.90
16076;DHT22;8142;48.242;11.644;2023-07-02T01:19:54;18.60;99.90
16076;DHT22;8142;48.242;11.644;2023-07-02T01:22:26;18.60;99.90
16076;DHT22;8142;48.242;11.644;2023-07-02T01:24:53;18.60;99.90
16076;DHT22;8142;48.242;11.644;2023-07-02T01:27:19;18.60;99.90
16076;DHT22;8142;48.242;11.644;2023-07-02T01:29:46;18.60;99.90
16076;DHT22;8142;48.242;11.644;2023-07-02T01:32:13;18.60;99.90
16076;DHT22;8142;48.242;11.644;2023-07-02T01:34:39;18.60;99.90
16076;DHT22;8142;48.242;11.644;2023-07-02T01:37:06;18.70;99.90
16076;DHT22;8142;48.242;11.644;2023-07-02T01:39:32;18.60;99.90
16076;DHT22;8142;48.242;11.644;2023-07-02T01:42:14;18.60;99.90
16076;DHT22;8142;48.242;11.644;2023-07-02T01:44:44;18.60;99.90
16076;DHT22;8142;48.242;11.644;2023-07-02T01:47:11;18.60;99.90
16076;DHT22;8142;48.242;11.644;2023-07-02T01:49:37;18.60;99.90
16076;DHT22;8142;48.242;11.644;2023-07-02T01:52:03;18.60;99.90
16076;DHT22;8142;48.242;11.644;2023-07-02T01:54:30;18.60;99.90
16076;DHT22;8142;48.242;11.644;2023-07-02T01:56:57;18.70;99.90
16076;DHT22;8142;48.242;11.644;2023-07-02T01:59:24;18.60;99.90
16076;DHT22;8142;48.242;11.644;2023-07-02T02:01:50;18.60;99.90
16076;DHT22;8142;48.242;11.644;2023-07-02T02:04:16;18.60;99.90
16076;DHT22;8142;48.242;11.644;2023-07-02T02:06:42;18.60;99.90
16076;DHT22;8142;48.242;11.644;2023-07-02T02:09:09;18.60;99.90
16076;DHT22;8142;48.242;11.644;2023-07-02T02:11:41;18.50;99.90
16076;DHT22;8142;48.242;11.644;2023-07-02T02:14:07;18.50;99.90
16076;DHT22;8142;48.242;11.644;2023-07-02T02:16:33;18.50;99.90
16076;DHT22;8142;48.242;11.644;2023-07-02T02:19:02;18.40;99.90
16076;DHT22;8142;48.242;11.644;2023-07-02T02:21:28;18.50;99.90
16076;DHT22;8142;48.242;11.644;2023-07-02T02:23:54;18.50;99.90
16076;DHT22;8142;48.242;11.644;2023-07-02T02:26:23;18.50;99.90
16076;DHT22;8142;48.242;11.644;2023-07-02T02:28:51;18.60;99.90
16076;DHT22;8142;48.242;11.644;2023-07-02T02:31:17;18.50;99.90
16076;DHT22;8142;48.242;11.644;2023-07-02T02:33:43;18.40;99.90
16076;DHT22;8142;48.242;11.644;2023-07-02T02:36:09;18.40;99.90
16076;DHT22;8142;48.242;11.644;2023-07-02T02:38:35;18.40;99.90
16076;DHT22;8142;48.242;11.644;2023-07-02T02:41:03;18.30;99.90
16076;DHT22;8142;48.242;11.644;2023-07-02T02:43:29;18.40;99.90
16076;DHT22;8142;48.242;11.644;2023-07-02T02:45:55;18.40;99.90
16076;DHT22;8142;48.242;11.644;2023-07-02T02:48:21;18.40;99.90
16076;DHT22;8142;48.242;11.644;2023-07-02T02:50:48;18.40;99.90
16076;DHT22;8142;48.242;11.644;2023-07-02T02:53:14;18.40;99.90
16076;DHT22;8142;48.242;11.644;2023-07-02T02:55:40;18.40;99.90
16076;DHT22;8142;48.242;11.644;2023-07-02T02:58:06;18.40;99.90
16076;DHT22;8142;48.242;11.644;2023-07-02T03:00:32;18.40;99.90
16076;DHT22;8142;48.242;11.644;2023-07-02T03:02:59;18.40;99.90
16076;DHT22;8142;48.242;11.644;2023-07-02T03:05:24;18.40;99.90
16076;DHT22;8142;48.242;11.644;2023-07-02T03:07:51;18.50;99.90
16076;DHT22;8142;48.242;11.644;2023-07-02T03:10:17;18.40;99.90
16076;DHT22;8142;48.242;11.644;2023-07-02T03:12:43;18.50;99.90
16076;DHT22;8142;48.242;11.644;2023-07-02T03:15:09;18.40;99.90
16076;DHT22;8142;48.242;11.644;2023-07-02T03:17:36;18.30;99.90
16076;DHT22;8142;48.242;11.644;2023-07-02T03:20:02;18.30;99.90
16076;DHT22;8142;48.242;11.644;2023-07-02T03:22:30;18.20;99.90
16076;DHT22;8142;48.242;11.644;2023-07-02T03:24:56;18.10;99.90
16076;DHT22;8142;48.242;11.644;2023-07-02T03:27:21;18.00;99.90
16076;DHT22;8142;48.242;11.644;2023-07-02T03:29:47;18.00;99.90
16076;DHT22;8142;48.242;11.644;2023-07-02T03:32:13;17.90;99.90
16076;DHT22;8142;48.242;11.644;2023-07-02T03:34:39;17.90;99.90
16076;DHT22;8142;48.242;11.644;2023-07-02T03:37:05;17.90;99.90
16076;DHT22;8142;48.242;11.644;2023-07-02T03:39:31;17.80;99.90
16076;DHT22;8142;48.242;11.644;2023-07-02T03:41:56;17.70;99.90
16076;DHT22;8142;48.242;11.644;2023-07-02T03:44:22;17.80;99.90
16076;DHT22;8142;48.242;11.644;2023-07-02T03:46:48;17.70;99.90
16076;DHT22;8142;48.242;11.644;2023-07-02T03:49:14;17.60;99.90
16076;DHT22;8142;48.242;11.644;2023-07-02T03:51:40;17.60;99.90
16076;DHT22;8142;48.242;11.644;2023-07-02T03:54:06;17.60;99.90
16076;DHT22;8142;48.242;11.644;2023-07-02T03:56:31;17.50;99.90
16076;DHT22;8142;48.242;11.644;2023-07-02T03:58:57;17.50;99.90
16076;DHT22;8142;48.242;11.644;2023-07-02T04:01:23;17.50;99.90
16076;DHT22;8142;48.242;11.644;2023-07-02T04:03:51;17.40;99.90
16076;DHT22;8142;48.242;11.644;2023-07-02T04:06:17;17.30;99.90
16076;DHT22;8142;48.242;11.644;2023-07-02T04:08:43;17.20;99.90
16076;DHT22;8142;48.242;11.644;2023-07-02T04:11:10;17.00;99.90
16076;DHT22;8142;48.242;11.644;2023-07-02T04:13:37;16.90;99.90
16076;DHT22;8142;48.242;11.644;2023-07-02T04:16:03;16.80;99.90
16076;DHT22;8142;48.242;11.644;2023-07-02T04:18:29;16.70;99.90
16076;DHT22;8142;48.242;11.644;2023-07-02T04:20:56;16.50;99.90
16076;DHT22;8142;48.242;11.644;2023-07-02T04:23:22;16.40;99.90
16076;DHT22;8142;48.242;11.644;2023-07-02T04:25:47;16.40;99.90
16076;DHT22;8142;48.242;11.644;2023-07-02T04:28:13;16.40;99.90
16076;DHT22;8142;48.242;11.644;2023-07-02T04:30:39;16.40;99.90
16076;DHT22;8142;48.242;11.644;2023-07-02T04:33:05;16.50;99.90
16076;DHT22;8142;48.242;11.644;2023-07-02T04:35:31;16.50;99.90
16076;DHT22;8142;48.242;11.644;2023-07-02T04:37:58;16.50;99.90
16076;DHT22;8142;48.242;11.644;2023-07-02T04:40:24;16.60;99.90
16076;DHT22;8142;48.242;11.644;2023-07-02T04:42:50;16.60;99.90
16076;DHT22;8142;48.242;11.644;2023-07-02T04:45:23;16.70;99.90
16076;DHT22;8142;48.242;11.644;2023-07-02T04:47:50;16.80;99.90
16076;DHT22;8142;48.242;11.644;2023-07-02T04:50:17;16.80;99.90
16076;DHT22;8142;48.242;11.644;2023-07-02T04:52:43;16.90;99.90
16076;DHT22;8142;48.242;11.644;2023-07-02T04:55:09;16.80;99.90
16076;DHT22;8142;48.242;11.644;2023-07-02T04:57:36;16.90;99.90
16076;DHT22;8142;48.242;11.644;2023-07-02T05:00:02;17.00;99.90
16076;DHT22;8142;48.242;11.644;2023-07-02T05:02:32;17.00;99.90
16076;DHT22;8142;48.242;11.644;2023-07-02T05:04:57;17.10;99.90
16076;DHT22;8142;48.242;11.644;2023-07-02T05:07:23;17.10;99.90
16076;DHT22;8142;48.242;11.644;2023-07-02T05:09:49;17.20;99.90
16076;DHT22;8142;48.242;11.644;2023-07-02T05:12:18;17.10;99.90
16076;DHT22;8142;48.242;11.644;2023-07-02T05:14:45;17.20;99.90
16076;DHT22;8142;48.242;11.644;2023-07-02T05:17:11;17.20;99.90
16076;DHT22;8142;48.242;11.644;2023-07-02T05:19:37;17.20;99.90
16076;DHT22;8142;48.242;11.644;2023-07-02T05:22:03;17.20;99.90
16076;DHT22;8142;48.242;11.644;2023-07-02T05:24:29;17.20;99.90
16076;DHT22;8142;48.242;11.644;2023-07-02T05:26:54;17.20;99.90
16076;DHT22;8142;48.242;11.644;2023-07-02T05:29:20;17.10;99.90
16076;DHT22;8142;48.242;11.644;2023-07-02T05:31:46;17.30;99.90
16076;DHT22;8142;48.242;11.644;2023-07-02T05:34:12;17.20;99.90
16076;DHT22;8142;48.242;11.644;2023-07-02T05:36:38;17.20;99.90
16076;DHT22;8142;48.242;11.644;2023-07-02T05:39:04;17.30;99.90
16076;DHT22;8142;48.242;11.644;2023-07-02T05:41:29;17.30;99.90
16076;DHT22;8142;48.242;11.644;2023-07-02T05:43:57;17.30;99.90
16076;DHT22;8142;48.242;11.644;2023-07-02T05:46:23;17.40;99.90
16076;DHT22;8142;48.242;11.644;2023-07-02T05:48:49;17.50;99.90
16076;DHT22;8142;48.242;11.644;2023-07-02T05:51:20;17.60;99.90
16076;DHT22;8142;48.242;11.644;2023-07-02T05:53:47;17.70;99.90
16076;DHT22;8142;48.242;11.644;2023-07-02T05:56:13;17.80;99.90
16076;DHT22;8142;48.242;11.644;2023-07-02T05:58:39;17.90;99.90
16076;DHT22;8142;48.242;11.644;2023-07-02T06:01:05;18.00;99.90
16076;DHT22;8142;48.242;11.644;2023-07-02T06:03:32;18.00;99.90
16076;DHT22;8142;48.242;11.644;2023-07-02T06:05:58;18.00;99.90
16076;DHT22;8142;48.242;11.644;2023-07-02T06:08:24;18.10;99.90
16076;DHT22;8142;48.242;11.644;2023-07-02T06:10:50;18.10;99.90
16076;DHT22;8142;48.242;11.644;2023-07-02T06:13:16;18.10;99.90
16076;DHT22;8142;48.242;11.644;2023-07-02T06:15:43;18.10;99.90
16076;DHT22;8142;48.242;11.644;2023-07-02T06:18:09;18.10;99.90
16076;DHT22;8142;48.242;11.644;2023-07-02T06:20:35;18.10;99.90
16076;DHT22;8142;48.242;11.644;2023-07-02T06:23:01;18.10;99.90
16076;DHT22;8142;48.242;11.644;2023-07-02T06:25:27;18.10;99.90
16076;DHT22;8142;48.242;11.644;2023-07-02T06:27:52;18.00;99.90
16076;DHT22;8142;48.242;11.644;2023-07-02T06:30:24;18.00;99.90
16076;DHT22;8142;48.242;11.644;2023-07-02T06:32:50;18.00;99.90
16076;DHT22;8142;48.242;11.644;2023-07-02T06:35:16;18.00;99.90
16076;DHT22;8142;48.242;11.644;2023-07-02T06:37:43;18.00;99.90
16076;DHT22;8142;48.242;11.644;2023-07-02T06:40:09;18.00;99.90
16076;DHT22;8142;48.242;11.644;2023-07-02T06:42:35;18.00;99.90
16076;DHT22;8142;48.242;11.644;2023-07-02T06:45:05;18.00;99.90
16076;DHT22;8142;48.242;11.644;2023-07-02T06:47:31;17.90;99.90
16076;DHT22;8142;48.242;11.644;2023-07-02T06:49:57;18.00;99.90
16076;DHT22;8142;48.242;11.644;2023-07-02T06:52:23;17.90;99.90
16076;DHT22;8142;48.242;11.644;2023-07-02T06:54:50;18.00;99.90
16076;DHT22;8142;48.242;11.644;2023-07-02T06:57:16;17.80;99.90
16076;DHT22;8142;48.242;11.644;2023-07-02T06:59:42;18.00;99.90
16076;DHT22;8142;48.242;11.644;2023-07-02T07:02:08;18.00;99.90
16076;DHT22;8142;48.242;11.644;2023-07-02T07:04:33;18.00;99.90
16076;DHT22;8142;48.242;11.644;2023-07-02T07:07:03;18.00;99.90
16076;DHT22;8142;48.242;11.644;2023-07-02T07:09:29;18.00;99.90
16076;DHT22;8142;48.242;11.644;2023-07-02T07:11:56;18.00;99.90
16076;DHT22;8142;48.242;11.644;2023-07-02T07:14:22;18.00;99.90
16076;DHT22;8142;48.242;11.644;2023-07-02T07:16:48;18.10;99.90
16076;DHT22;8142;48.242;11.644;2023-07-02T07:19:14;18.20;99.90
16076;DHT22;8142;48.242;11.644;2023-07-02T07:21:40;18.20;99.90
16076;DHT22;8142;48.242;11.644;2023-07-02T07:24:06;18.10;99.90
16076;DHT22;8142;48.242;11.644;2023-07-02T07:26:32;18.10;99.90
16076;DHT22;8142;48.242;11.644;2023-07-02T07:28:58;18.10;99.90
16076;DHT22;8142;48.242;11.644;2023-07-02T07:31:24;18.10;99.90
16076;DHT22;8142;48.242;11.644;2023-07-02T07:33:50;18.10;99.90
16076;DHT22;8142;48.242;11.644;2023-07-02T07:36:16;18.00;99.90
16076;DHT22;8142;48.242;11.644;2023-07-02T07:38:45;18.00;99.90
16076;DHT22;8142;48.242;11.644;2023-07-02T07:41:11;18.00;99.90
16076;DHT22;8142;48.242;11.644;2023-07-02T07:43:37;17.90;99.90
16076;DHT22;8142;48.242;11.644;2023-07-02T07:46:03;17.80;99.90
16076;DHT22;8142;48.242;11.644;2023-07-02T07:48:29;17.70;99.90
16076;DHT22;8142;48.242;11.644;2023-07-02T07:50:55;17.50;99.90
16076;DHT22;8142;48.242;11.644;2023-07-02T07:53:21;17.40;99.90
16076;DHT22;8142;48.242;11.644;2023-07-02T07:55:47;17.30;99.90
16076;DHT22;8142;48.242;11.644;2023-07-02T07:58:12;17.20;99.90
16076;DHT22;8142;48.242;11.644;2023-07-02T08:00:38;17.20;99.90
16076;DHT22;8142;48.242;11.644;2023-07-02T08:03:04;17.20;99.90
16076;DHT22;8142;48.242;11.644;2023-07-02T08:05:31;17.30;99.90
16076;DHT22;8142;48.242;11.644;2023-07-02T08:07:57;17.50;99.90
16076;DHT22;8142;48.242;11.644;2023-07-02T08:10:23;17.70;99.90
16076;DHT22;8142;48.242;11.644;2023-07-02T08:12:50;17.90;99.90
16076;DHT22;8142;48.242;11.644;2023-07-02T08:15:18;18.20;99.90
16076;DHT22;8142;48.242;11.644;2023-07-02T08:17:44;18.50;99.90
16076;DHT22;8142;48.242;11.644;2023-07-02T08:20:11;18.70;99.90
16076;DHT22;8142;48.242;11.644;2023-07-02T08:22:38;18.90;99.90
16076;DHT22;8142;48.242;11.644;2023-07-02T08:25:05;19.10;99.90
16076;DHT22;8142;48.242;11.644;2023-07-02T08:27:31;19.30;99.90
16076;DHT22;8142;48.242;11.644;2023-07-02T08:29:57;19.40;99.90
16076;DHT22;8142;48.242;11.644;2023-07-02T08:32:23;19.60;99.90
16076;DHT22;8142;48.242;11.644;2023-07-02T08:34:49;19.60;99.90
16076;DHT22;8142;48.242;11.644;2023-07-02T08:37:20;19.60;99.90
16076;DHT22;8142;48.242;11.644;2023-07-02T08:39:46;19.70;99.90
16076;DHT22;8142;48.242;11.644;2023-07-02T08:42:12;19.70;99.90
16076;DHT22;8142;48.242;11.644;2023-07-02T08:44:37;19.80;99.90
16076;DHT22;8142;48.242;11.644;2023-07-02T08:47:05;19.80;99.90
16076;DHT22;8142;48.242;11.644;2023-07-02T08:49:31;19.80;99.90
16076;DHT22;8142;48.242;11.644;2023-07-02T08:51:58;19.80;99.90
16076;DHT22;8142;48.242;11.644;2023-07-02T08:54:24;19.90;99.90
16076;DHT22;8142;48.242;11.644;2023-07-02T08:56:50;19.90;99.90
16076;DHT22;8142;48.242;11.644;2023-07-02T08:59:16;20.00;99.90
16076;DHT22;8142;48.242;11.644;2023-07-02T09:01:52;20.00;99.90
16076;DHT22;8142;48.242;11.644;2023-07-02T09:04:19;20.00;99.90
16076;DHT22;8142;48.242;11.644;2023-07-02T09:06:46;20.00;99.90
16076;DHT22;8142;48.242;11.644;2023-07-02T09:09:12;20.10;99.90
16076;DHT22;8142;48.242;11.644;2023-07-02T09:11:47;20.20;99.90
16076;DHT22;8142;48.242;11.644;2023-07-02T09:14:27;20.20;99.90
16076;DHT22;8142;48.242;11.644;2023-07-02T09:17:07;20.20;99.90
16076;DHT22;8142;48.242;11.644;2023-07-02T09:19:35;20.20;99.90
16076;DHT22;8142;48.242;11.644;2023-07-02T09:22:02;20.20;99.90
16076;DHT22;8142;48.242;11.644;2023-07-02T09:24:30;20.20;99.90
16076;DHT22;8142;48.242;11.644;2023-07-02T09:26:59;20.20;99.90
16076;DHT22;8142;48.242;11.644;2023-07-02T09:29:30;20.20;99.90
16076;DHT22;8142;48.242;11.644;2023-07-02T09:32:01;20.20;99.90
16076;DHT22;8142;48.242;11.644;2023-07-02T09:34:29;20.20;99.90
16076;DHT22;8142;48.242;11.644;2023-07-02T09:36:59;20.20;99.90
16076;DHT22;8142;48.242;11.644;2023-07-02T09:39:34;20.10;99.90
16076;DHT22;8142;48.242;11.644;2023-07-02T09:42:02;20.20;99.90
16076;DHT22;8142;48.242;11.644;2023-07-02T09:44:29;20.20;99.90
16076;DHT22;8142;48.242;11.644;2023-07-02T09:47:02;20.20;99.90
16076;DHT22;8142;48.242;11.644;2023-07-02T09:49:41;20.30;99.90
16076;DHT22;8142;48.242;11.644;2023-07-02T09:52:10;20.30;99.90
16076;DHT22;8142;48.242;11.644;2023-07-02T09:54:36;20.30;99.90
16076;DHT22;8142;48.242;11.644;2023-07-02T09:57:03;20.30;99.90
16076;DHT22;8142;48.242;11.644;2023-07-02T09:59:30;20.20;99.90
16076;DHT22;8142;48.242;11.644;2023-07-02T10:01:56;20.20;99.90
16076;DHT22;8142;48.242;11.644;2023-07-02T10:04:22;20.10;99.90
16076;DHT22;8142;48.242;11.644;2023-07-02T10:06:51;20.10;99.90
16076;DHT22;8142;48.242;11.644;2023-07-02T10:09:18;20.10;99.90
16076;DHT22;8142;48.242;11.644;2023-07-02T10:11:44;20.00;99.90
16076;DHT22;8142;48.242;11.644;2023-07-02T10:14:11;20.00;99.90
16076;DHT22;8142;48.242;11.644;2023-07-02T10:16:53;20.10;99.90
16076;DHT22;8142;48.242;11.644;2023-07-02T10:19:20;20.20;99.90
16076;DHT22;8142;48.242;11.644;2023-07-02T10:21:46;20.20;99.90
16076;DHT22;8142;48.242;11.644;2023-07-02T10:24:16;20.20;99.90
16076;DHT22;8142;48.242;11.644;2023-07-02T10:26:55;20.30;99.90
16076;DHT22;8142;48.242;11.644;2023-07-02T10:29:26;20.30;99.90
16076;DHT22;8142;48.242;11.644;2023-07-02T10:31:54;20.30;99.90
16076;DHT22;8142;48.242;11.644;2023-07-02T10:34:34;20.30;99.90
16076;DHT22;8142;48.242;11.644;2023-07-02T10:37:04;20.30;99.90
16076;DHT22;8142;48.242;11.644;2023-07-02T10:39:31;20.40;99.90
16076;DHT22;8142;48.242;11.644;2023-07-02T10:42:07;20.50;99.90
16076;DHT22;8142;48.242;11.644;2023-07-02T10:44:47;20.50;99.90
16076;DHT22;8142;48.242;11.644;2023-07-02T10:47:13;20.60;99.90
16076;DHT22;8142;48.242;11.644;2023-07-02T10:49:39;20.50;99.90
16076;DHT22;8142;48.242;11.644;2023-07-02T10:52:05;20.60;99.90
16076;DHT22;8142;48.242;11.644;2023-07-02T10:54:40;20.60;99.90
16076;DHT22;8142;48.242;11.644;2023-07-02T10:57:10;20.70;99.90
16076;DHT22;8142;48.242;11.644;2023-07-02T10:59:37;20.70;99.90
16076;DHT22;8142;48.242;11.644;2023-07-02T11:02:03;20.80;99.90
16076;DHT22;8142;48.242;11.644;2023-07-02T11:04:30;20.80;99.90
16076;DHT22;8142;48.242;11.644;2023-07-02T11:06:56;20.90;99.90
16076;DHT22;8142;48.242;11.644;2023-07-02T11:09:22;21.00;99.90
16076;DHT22;8142;48.242;11.644;2023-07-02T11:12:01;20.90;99.90
16076;DHT22;8142;48.242;11.644;2023-07-02T11:14:30;20.90;99.90
16076;DHT22;8142;48.242;11.644;2023-07-02T11:17:01;21.00;99.90
16076;DHT22;8142;48.242;11.644;2023-07-02T11:19:29;21.00;99.90
16076;DHT22;8142;48.242;11.644;2023-07-02T11:21:57;21.00;99.90
16076;DHT22;8142;48.242;11.644;2023-07-02T11:24:33;21.00;99.90
16076;DHT22;8142;48.242;11.644;2023-07-02T11:27:04;21.10;99.90
16076;DHT22;8142;48.242;11.644;2023-07-02T11:29:36;21.10;99.90
16076;DHT22;8142;48.242;11.644;2023-07-02T11:32:10;21.10;99.90
16076;DHT22;8142;48.242;11.644;2023-07-02T11:34:36;21.10;99.90
16076;DHT22;8142;48.242;11.644;2023-07-02T11:37:03;21.20;99.90
16076;DHT22;8142;48.242;11.644;2023-07-02T11:39:30;21.20;99.90
16076;DHT22;8142;48.242;11.644;2023-07-02T11:41:56;21.20;99.90
16076;DHT22;8142;48.242;11.644;2023-07-02T11:44:22;21.30;99.90
16076;DHT22;8142;48.242;11.644;2023-07-02T11:46:49;21.30;99.90
16076;DHT22;8142;48.242;11.644;2023-07-02T11:49:15;21.40;99.90
16076;DHT22;8142;48.242;11.644;2023-07-02T11:51:41;21.40;99.90
16076;DHT22;8142;48.242;11.644;2023-07-02T11:54:14;21.50;99.90
16076;DHT22;8142;48.242;11.644;2023-07-02T11:56:40;21.60;99.90
16076;DHT22;8142;48.242;11.644;2023-07-02T11:59:08;21.60;99.90
16076;DHT22;8142;48.242;11.644;2023-07-02T12:01:34;21.70;99.90
16076;DHT22;8142;48.242;11.644;2023-07-02T12:04:00;21.70;99.90
16076;DHT22;8142;48.242;11.644;2023-07-02T12:06:26;21.80;99.90
16076;DHT22;8142;48.242;11.644;2023-07-02T12:08:52;21.80;99.90
16076;DHT22;8142;48.242;11.644;2023-07-02T12:11:17;21.80;99.90
16076;DHT22;8142;48.242;11.644;2023-07-02T12:13:43;22.00;99.90
16076;DHT22;8142;48.242;11.644;2023-07-02T12:16:09;22.00;99.90
16076;DHT22;8142;48.242;11.644;2023-07-02T12:18:35;22.20;99.90
16076;DHT22;8142;48.242;11.644;2023-07-02T12:21:01;22.20;99.90
16076;DHT22;8142;48.242;11.644;2023-07-02T12:23:27;22.10;99.90
16076;DHT22;8142;48.242;11.644;2023-07-02T12:25:53;22.10;99.90
16076;DHT22;8142;48.242;11.644;2023-07-02T12:28:18;22.10;99.90
16076;DHT22;8142;48.242;11.644;2023-07-02T12:30:44;22.00;99.90
16076;DHT22;8142;48.242;11.644;2023-07-02T12:33:10;21.90;99.90
16076;DHT22;8142;48.242;11.644;2023-07-02T12:35:36;21.80;99.90
16076;DHT22;8142;48.242;11.644;2023-07-02T12:38:02;21.80;99.90
16076;DHT22;8142;48.242;11.644;2023-07-02T12:40:29;21.80;99.90
16076;DHT22;8142;48.242;11.644;2023-07-02T12:42:55;21.80;99.90
16076;DHT22;8142;48.242;11.644;2023-07-02T12:45:22;21.80;99.90
16076;DHT22;8142;48.242;11.644;2023-07-02T12:47:48;21.90;99.90
16076;DHT22;8142;48.242;11.644;2023-07-02T12:50:13;21.90;99.90
16076;DHT22;8142;48.242;11.644;2023-07-02T12:52:39;21.90;99.90
16076;DHT22;8142;48.242;11.644;2023-07-02T12:55:05;21.90;99.90
16076;DHT22;8142;48.242;11.644;2023-07-02T12:57:31;22.00;99.90
16076;DHT22;8142;48.242;11.644;2023-07-02T12:59:57;22.00;99.90
16076;DHT22;8142;48.242;11.644;2023-07-02T13:02:24;22.00;99.90
16076;DHT22;8142;48.242;11.644;2023-07-02T13:04:51;22.10;99.90
16076;DHT22;8142;48.242;11.644;2023-07-02T13:07:17;22.10;99.90
16076;DHT22;8142;48.242;11.644;2023-07-02T13:09:43;22.20;99.90
16076;DHT22;8142;48.242;11.644;2023-07-02T13:12:10;22.30;99.90
16076;DHT22;8142;48.242;11.644;2023-07-02T13:14:37;22.30;99.90
16076;DHT22;8142;48.242;11.644;2023-07-02T13:17:03;22.30;99.90
16076;DHT22;8142;48.242;11.644;2023-07-02T13:19:31;22.40;99.90
16076;DHT22;8142;48.242;11.644;2023-07-02T13:21:57;22.50;99.90
16076;DHT22;8142;48.242;11.644;2023-07-02T13:24:23;22.40;99.90
16076;DHT22;8142;48.242;11.644;2023-07-02T13:26:49;22.40;99.90
16076;DHT22;8142;48.242;11.644;2023-07-02T13:29:15;22.30;99.90
16076;DHT22;8142;48.242;11.644;2023-07-02T13:31:42;22.40;99.90
16076;DHT22;8142;48.242;11.644;2023-07-02T13:34:08;22.30;99.90
16076;DHT22;8142;48.242;11.644;2023-07-02T13:36:34;22.30;99.90
16076;DHT22;8142;48.242;11.644;2023-07-02T13:38:59;22.40;99.90
16076;DHT22;8142;48.242;11.644;2023-07-02T13:41:25;22.40;99.90
16076;DHT22;8142;48.242;11.644;2023-07-02T13:43:51;22.40;99.90
16076;DHT22;8142;48.242;11.644;2023-07-02T13:46:17;22.40;99.90
16076;DHT22;8142;48.242;11.644;2023-07-02T13:48:43;22.40;99.90
16076;DHT22;8142;48.242;11.644;2023-07-02T13:51:09;22.50;99.90
16076;DHT22;8142;48.242;11.644;2023-07-02T13:53:35;22.50;99.90
16076;DHT22;8142;48.242;11.644;2023-07-02T13:56:01;22.60;99.90
16076;DHT22;8142;48.242;11.644;2023-07-02T14:01:11;22.70;99.90
16076;DHT22;8142;48.242;11.644;2023-07-02T14:03:37;22.70;99.90
16076;DHT22;8142;48.242;11.644;2023-07-02T14:06:03;22.70;99.90
16076;DHT22;8142;48.242;11.644;2023-07-02T14:08:29;22.80;99.90
16076;DHT22;8142;48.242;11.644;2023-07-02T14:10:55;22.90;99.90
16076;DHT22;8142;48.242;11.644;2023-07-02T14:13:21;22.90;99.90
16076;DHT22;8142;48.242;11.644;2023-07-02T14:15:46;22.90;99.90
16076;DHT22;8142;48.242;11.644;2023-07-02T14:18:12;23.00;99.90
16076;DHT22;8142;48.242;11.644;2023-07-02T14:20:38;23.00;99.90
16076;DHT22;8142;48.242;11.644;2023-07-02T14:23:04;23.10;99.90
16076;DHT22;8142;48.242;11.644;2023-07-02T14:25:30;23.10;99.90
16076;DHT22;8142;48.242;11.644;2023-07-02T14:27:55;23.10;99.90
16076;DHT22;8142;48.242;11.644;2023-07-02T14:30:21;23.10;99.90
16076;DHT22;8142;48.242;11.644;2023-07-02T14:32:47;23.10;99.90
16076;DHT22;8142;48.242;11.644;2023-07-02T14:35:13;23.10;99.90
16076;DHT22;8142;48.242;11.644;2023-07-02T14:37:39;23.10;99.90
16076;DHT22;8142;48.242;11.644;2023-07-02T14:40:05;23.10;99.90
16076;DHT22;8142;48.242;11.644;2023-07-02T14:42:31;23.10;99.90
16076;DHT22;8142;48.242;11.644;2023-07-02T14:44:57;23.00;99.90
16076;DHT22;8142;48.242;11.644;2023-07-02T14:47:23;23.00;99.90
16076;DHT22;8142;48.242;11.644;2023-07-02T14:49:49;23.00;99.90
16076;DHT22;8142;48.242;11.644;2023-07-02T14:52:15;23.00;99.90
16076;DHT22;8142;48.242;11.644;2023-07-02T14:54:45;23.00;99.90
16076;DHT22;8142;48.242;11.644;2023-07-02T14:57:11;23.00;99.90
16076;DHT22;8142;48.242;11.644;2023-07-02T14:59:37;22.90;99.90
16076;DHT22;8142;48.242;11.644;2023-07-02T15:02:03;22.90;99.90
16076;DHT22;8142;48.242;11.644;2023-07-02T15:04:29;22.90;99.90
16076;DHT22;8142;48.242;11.644;2023-07-02T15:06:56;22.90;99.90
16076;DHT22;8142;48.242;11.644;2023-07-02T15:09:21;22.90;99.90
16076;DHT22;8142;48.242;11.644;2023-07-02T15:11:47;22.90;99.90
16076;DHT22;8142;48.242;11.644;2023-07-02T15:14:13;22.80;99.90
16076;DHT22;8142;48.242;11.644;2023-07-02T15:16:39;22.90;99.90
16076;DHT22;8142;48.242;11.644;2023-07-02T15:19:05;22.90;99.90
16076;DHT22;8142;48.242;11.644;2023-07-02T15:21:31;22.90;99.90
16076;DHT22;8142;48.242;11.644;2023-07-02T15:23:57;22.90;99.90
16076;DHT22;8142;48.242;11.644;2023-07-02T15:26:23;22.90;99.90
16076;DHT22;8142;48.242;11.644;2023-07-02T15:28:50;22.90;99.90
16076;DHT22;8142;48.242;11.644;2023-07-02T15:31:16;22.90;99.90